sensor_id;sensor_type;location;lat;lon;timestamp;pressure;altitude;pressure_sealevel;temperature;humidity
71948;BME280;63257;55.082;38.772;2022-09-20T00:03:29;98868.09;;;11.09;74.25
71948;BME280;63257;55.082;38.772;2022-09-20T00:05:59;98845.56;;;11.03;73.94
71948;BME280;63257;55.082;38.772;2022-09-20T00:08:26;98861.72;;;11.11;74.47
71948;BME280;63257;55.082;38.772;2022-09-20T00:11:03;98864.56;;;11.08;74.26
71948;BME280;63257;55.082;38.772;2022-09-20T00:13:32;98868.00;;;10.97;74.94
71948;BME280;63257;55.082;38.772;2022-09-20T00:19:54;98872.69;;;10.81;75.66
71948;BME280;63257;55.082;38.772;2022-09-20T00:22:20;98879.78;;;10.80;75.85
71948;BME280;63257;55.082;38.772;2022-09-20T00:24:46;98888.03;;;10.76;76.04
71948;BME280;63257;55.082;38.772;2022-09-20T00:27:12;98893.50;;;10.73;76.29
71948;BME280;63257;55.082;38.772;2022-09-20T00:33:57;98892.28;;;10.52;76.76
71948;BME280;63257;55.082;38.772;2022-09-20T00:36:42;98906.94;;;10.57;76.97
71948;BME280;63257;55.082;38.772;2022-09-20T00:39:10;98886.38;;;10.49;76.91
71948;BME280;63257;55.082;38.772;2022-09-20T00:41:36;98905.47;;;10.52;77.20
71948;BME280;63257;55.082;38.772;2022-09-20T00:48:27;98928.69;;;10.47;77.42
71948;BME280;63257;55.082;38.772;2022-09-20T01:08:01;98949.59;;;10.38;78.64
71948;BME280;63257;55.082;38.772;2022-09-20T01:14:47;98961.81;;;10.51;78.21
71948;BME280;63257;55.082;38.772;2022-09-20T01:17:16;98958.66;;;10.59;78.06
71948;BME280;63257;55.082;38.772;2022-09-20T01:27:12;98970.34;;;10.81;77.03
71948;BME280;63257;55.082;38.772;2022-09-20T01:43:41;98986.19;;;10.94;75.52
71948;BME280;63257;55.082;38.772;2022-09-20T01:46:20;98998.63;;;10.92;76.12
71948;BME280;63257;55.082;38.772;2022-09-20T01:48:53;99007.44;;;10.92;76.21
71948;BME280;63257;55.082;38.772;2022-09-20T02:23:45;99029.50;;;10.91;76.27
71948;BME280;63257;55.082;38.772;2022-09-20T02:26:56;99023.25;;;10.92;76.17
71948;BME280;63257;55.082;38.772;2022-09-20T02:32:55;99030.03;;;10.96;75.97
71948;BME280;63257;55.082;38.772;2022-09-20T02:46:25;99054.00;;;10.67;77.39
71948;BME280;63257;55.082;38.772;2022-09-20T02:49:05;99030.19;;;10.42;77.88
71948;BME280;63257;55.082;38.772;2022-09-20T02:51:39;99058.69;;;10.49;77.88
71948;BME280;63257;55.082;38.772;2022-09-20T03:01:19;99070.72;;;10.41;78.47
71948;BME280;63257;55.082;38.772;2022-09-20T03:19:31;99114.53;;;10.29;79.39
71948;BME280;63257;55.082;38.772;2022-09-20T03:22:18;99119.06;;;10.27;79.33
71948;BME280;63257;55.082;38.772;2022-09-20T03:51:47;99167.72;;;10.50;77.90
71948;BME280;63257;55.082;38.772;2022-09-20T04:00:24;99170.25;;;10.51;77.88
71948;BME280;63257;55.082;38.772;2022-09-20T04:05:57;99196.69;;;10.64;77.09
71948;BME280;63257;55.082;38.772;2022-09-20T04:14:48;99181.53;;;10.53;77.30
71948;BME280;63257;55.082;38.772;2022-09-20T04:20:14;99206.88;;;10.56;77.72
71948;BME280;63257;55.082;38.772;2022-09-20T04:22:48;99214.06;;;10.54;77.34
71948;BME280;63257;55.082;38.772;2022-09-20T04:25:36;99208.78;;;10.54;77.56
71948;BME280;63257;55.082;38.772;2022-09-20T04:28:10;99226.31;;;10.55;77.27
71948;BME280;63257;55.082;38.772;2022-09-20T04:30:39;99226.22;;;10.57;76.83
71948;BME280;63257;55.082;38.772;2022-09-20T04:33:18;99227.81;;;10.59;77.08
71948;BME280;63257;55.082;38.772;2022-09-20T04:35:58;99219.72;;;10.48;76.43
71948;BME280;63257;55.082;38.772;2022-09-20T04:38:52;99229.22;;;10.65;76.69
71948;BME280;63257;55.082;38.772;2022-09-20T04:55:53;99250.81;;;10.84;75.30
71948;BME280;63257;55.082;38.772;2022-09-20T04:58:45;99248.16;;;10.84;74.99
71948;BME280;63257;55.082;38.772;2022-09-20T05:15:59;99273.94;;;11.21;74.07
71948;BME280;63257;55.082;38.772;2022-09-20T05:23:51;99252.16;;;11.17;73.41
71948;BME280;63257;55.082;38.772;2022-09-20T05:26:35;99275.00;;;11.31;73.23
71948;BME280;63257;55.082;38.772;2022-09-20T05:35:18;99272.50;;;11.43;71.91
71948;BME280;63257;55.082;38.772;2022-09-20T05:37:54;99287.63;;;11.53;72.37
71948;BME280;63257;55.082;38.772;2022-09-20T05:43:26;99277.25;;;11.50;71.23
71948;BME280;63257;55.082;38.772;2022-09-20T05:48:57;99290.19;;;11.68;70.19
71948;BME280;63257;55.082;38.772;2022-09-20T05:51:50;99275.66;;;11.61;70.24
71948;BME280;63257;55.082;38.772;2022-09-20T05:55:00;99290.63;;;11.75;69.94
71948;BME280;63257;55.082;38.772;2022-09-20T05:58:01;99294.94;;;11.76;69.78
71948;BME280;63257;55.082;38.772;2022-09-20T06:00:49;99299.16;;;11.78;69.59
71948;BME280;63257;55.082;38.772;2022-09-20T06:03:29;99300.53;;;11.84;69.64
71948;BME280;63257;55.082;38.772;2022-09-20T06:09:10;99308.28;;;11.87;68.71
71948;BME280;63257;55.082;38.772;2022-09-20T06:14:32;99305.31;;;11.92;68.02
71948;BME280;63257;55.082;38.772;2022-09-20T06:17:36;99328.69;;;12.24;67.61
71948;BME280;63257;55.082;38.772;2022-09-20T06:20:28;99322.56;;;12.23;67.32
71948;BME280;63257;55.082;38.772;2022-09-20T06:22:57;99342.16;;;12.20;66.93
71948;BME280;63257;55.082;38.772;2022-09-20T06:30:40;99348.91;;;12.50;66.30
71948;BME280;63257;55.082;38.772;2022-09-20T06:33:26;99354.31;;;12.49;65.34
71948;BME280;63257;55.082;38.772;2022-09-20T06:36:09;99352.03;;;12.55;65.50
71948;BME280;63257;55.082;38.772;2022-09-20T06:41:59;99362.25;;;12.86;65.29
71948;BME280;63257;55.082;38.772;2022-09-20T06:44:25;99351.91;;;12.70;64.11
71948;BME280;63257;55.082;38.772;2022-09-20T06:46:51;99377.75;;;12.79;64.38
71948;BME280;63257;55.082;38.772;2022-09-20T06:49:21;99374.28;;;13.03;63.75
71948;BME280;63257;55.082;38.772;2022-09-20T06:51:47;99386.41;;;13.18;64.17
71948;BME280;63257;55.082;38.772;2022-09-20T06:54:19;99383.19;;;13.26;63.10
71948;BME280;63257;55.082;38.772;2022-09-20T06:56:48;99388.69;;;13.36;62.70
71948;BME280;63257;55.082;38.772;2022-09-20T06:59:15;99398.81;;;13.42;62.12
71948;BME280;63257;55.082;38.772;2022-09-20T07:01:41;99350.59;;;13.13;62.05
71948;BME280;63257;55.082;38.772;2022-09-20T07:04:08;99405.59;;;13.46;61.53
71948;BME280;63257;55.082;38.772;2022-09-20T07:06:34;99409.00;;;13.48;61.79
71948;BME280;63257;55.082;38.772;2022-09-20T07:09:00;99360.25;;;13.14;61.44
71948;BME280;63257;55.082;38.772;2022-09-20T07:11:27;99417.94;;;13.58;61.63
71948;BME280;63257;55.082;38.772;2022-09-20T07:13:55;99416.44;;;13.67;61.51
71948;BME280;63257;55.082;38.772;2022-09-20T07:16:23;99406.72;;;13.55;60.99
71948;BME280;63257;55.082;38.772;2022-09-20T07:18:49;99428.34;;;13.62;61.62
71948;BME280;63257;55.082;38.772;2022-09-20T07:21:18;99431.78;;;13.51;61.73
71948;BME280;63257;55.082;38.772;2022-09-20T07:23:44;99439.69;;;13.39;61.69
71948;BME280;63257;55.082;38.772;2022-09-20T07:26:24;99445.50;;;13.32;61.36
71948;BME280;63257;55.082;38.772;2022-09-20T07:28:52;99450.41;;;13.25;62.00
71948;BME280;63257;55.082;38.772;2022-09-20T07:36:08;99472.81;;;13.08;63.04
71948;BME280;63257;55.082;38.772;2022-09-20T07:42:46;99467.47;;;13.21;62.82
71948;BME280;63257;55.082;38.772;2022-09-20T07:45:12;99473.41;;;13.24;62.06
71948;BME280;63257;55.082;38.772;2022-09-20T07:47:38;99446.09;;;13.11;61.85
71948;BME280;63257;55.082;38.772;2022-09-20T07:50:07;99463.41;;;13.28;61.70
71948;BME280;63257;55.082;38.772;2022-09-20T07:52:34;99463.53;;;13.39;61.67
71948;BME280;63257;55.082;38.772;2022-09-20T07:55:00;99464.03;;;13.45;61.33
71948;BME280;63257;55.082;38.772;2022-09-20T07:57:26;99459.28;;;13.61;60.61
71948;BME280;63257;55.082;38.772;2022-09-20T07:59:52;99451.75;;;13.44;60.22
71948;BME280;63257;55.082;38.772;2022-09-20T08:02:17;99449.66;;;13.60;60.33
71948;BME280;63257;55.082;38.772;2022-09-20T08:04:43;99434.38;;;13.39;60.19
71948;BME280;63257;55.082;38.772;2022-09-20T08:07:11;99453.13;;;13.36;60.43
71948;BME280;63257;55.082;38.772;2022-09-20T08:09:37;99457.34;;;13.52;60.47
71948;BME280;63257;55.082;38.772;2022-09-20T08:12:03;99457.00;;;13.56;60.37
71948;BME280;63257;55.082;38.772;2022-09-20T08:14:30;99461.22;;;13.59;60.04
71948;BME280;63257;55.082;38.772;2022-09-20T08:16:56;99450.63;;;13.59;60.41
71948;BME280;63257;55.082;38.772;2022-09-20T08:19:23;99460.16;;;13.62;60.02
71948;BME280;63257;55.082;38.772;2022-09-20T08:21:50;99460.03;;;13.63;59.82
71948;BME280;63257;55.082;38.772;2022-09-20T08:24:17;99476.66;;;13.89;59.84
71948;BME280;63257;55.082;38.772;2022-09-20T08:26:43;99485.59;;;13.88;59.50
71948;BME280;63257;55.082;38.772;2022-09-20T08:29:09;99479.88;;;13.82;59.21
71948;BME280;63257;55.082;38.772;2022-09-20T08:31:38;99483.25;;;13.72;59.27
71948;BME280;63257;55.082;38.772;2022-09-20T08:34:07;99487.09;;;13.55;59.40
71948;BME280;63257;55.082;38.772;2022-09-20T08:36:37;99479.47;;;13.75;59.54
71948;BME280;63257;55.082;38.772;2022-09-20T08:39:04;99487.25;;;13.78;59.16
71948;BME280;63257;55.082;38.772;2022-09-20T08:41:47;99508.00;;;13.84;59.13
71948;BME280;63257;55.082;38.772;2022-09-20T08:47:02;99508.75;;;14.22;58.53
71948;BME280;63257;55.082;38.772;2022-09-20T08:49:30;99504.56;;;14.31;57.52
71948;BME280;63257;55.082;38.772;2022-09-20T08:51:57;99503.22;;;14.25;58.07
71948;BME280;63257;55.082;38.772;2022-09-20T08:54:25;99498.59;;;14.16;58.10
71948;BME280;63257;55.082;38.772;2022-09-20T08:56:52;99513.94;;;14.23;58.08
71948;BME280;63257;55.082;38.772;2022-09-20T08:59:20;99499.06;;;14.10;58.34
71948;BME280;63257;55.082;38.772;2022-09-20T09:01:48;99512.09;;;14.13;58.36
71948;BME280;63257;55.082;38.772;2022-09-20T09:04:49;99518.59;;;14.08;58.87
71948;BME280;63257;55.082;38.772;2022-09-20T09:07:17;99502.63;;;13.97;58.61
71948;BME280;63257;55.082;38.772;2022-09-20T09:09:48;99522.31;;;14.06;59.11
71948;BME280;63257;55.082;38.772;2022-09-20T09:12:29;99511.16;;;13.89;59.82
71948;BME280;63257;55.082;38.772;2022-09-20T09:15:23;99519.66;;;14.06;59.83
71948;BME280;63257;55.082;38.772;2022-09-20T09:17:52;99515.75;;;14.23;59.33
71948;BME280;63257;55.082;38.772;2022-09-20T09:20:20;99519.13;;;14.25;58.73
71948;BME280;63257;55.082;38.772;2022-09-20T09:22:57;99512.63;;;14.29;59.31
71948;BME280;63257;55.082;38.772;2022-09-20T09:28:00;99523.66;;;14.47;57.20
71948;BME280;63257;55.082;38.772;2022-09-20T09:30:35;99525.94;;;14.52;57.03
71948;BME280;63257;55.082;38.772;2022-09-20T09:38:32;99529.50;;;14.28;57.14
71948;BME280;63257;55.082;38.772;2022-09-20T09:40:59;99532.53;;;14.23;56.89
71948;BME280;63257;55.082;38.772;2022-09-20T09:43:28;99513.09;;;14.23;56.31
71948;BME280;63257;55.082;38.772;2022-09-20T09:45:56;99534.19;;;14.60;55.37
71948;BME280;63257;55.082;38.772;2022-09-20T09:48:41;99532.56;;;14.93;54.79
71948;BME280;63257;55.082;38.772;2022-09-20T09:51:15;99537.53;;;14.98;52.77
71948;BME280;63257;55.082;38.772;2022-09-20T09:53:43;99534.63;;;14.89;52.76
71948;BME280;63257;55.082;38.772;2022-09-20T10:00:17;99539.81;;;15.02;53.86
71948;BME280;63257;55.082;38.772;2022-09-20T10:16:10;99555.38;;;14.37;55.42
71948;BME280;63257;55.082;38.772;2022-09-20T10:19:08;99557.59;;;14.55;55.59
71948;BME280;63257;55.082;38.772;2022-09-20T10:21:44;99553.19;;;14.67;55.19
71948;BME280;63257;55.082;38.772;2022-09-20T10:41:02;99515.56;;;15.18;52.53
71948;BME280;63257;55.082;38.772;2022-09-20T10:47:01;99530.16;;;15.01;52.61
71948;BME280;63257;55.082;38.772;2022-09-20T10:55:58;99568.72;;;15.30;52.69
71948;BME280;63257;55.082;38.772;2022-09-20T11:07:15;99564.69;;;14.90;52.99
71948;BME280;63257;55.082;38.772;2022-09-20T11:10:05;99571.00;;;15.00;53.00
71948;BME280;63257;55.082;38.772;2022-09-20T11:12:43;99596.38;;;15.16;52.85
71948;BME280;63257;55.082;38.772;2022-09-20T11:15:34;99591.31;;;15.35;52.43
71948;BME280;63257;55.082;38.772;2022-09-20T11:18:21;99599.41;;;15.22;52.96
71948;BME280;63257;55.082;38.772;2022-09-20T11:20:54;99605.56;;;15.34;52.83
71948;BME280;63257;55.082;38.772;2022-09-20T11:24:09;99605.91;;;15.41;51.03
71948;BME280;63257;55.082;38.772;2022-09-20T11:31:48;99615.09;;;15.71;51.14
71948;BME280;63257;55.082;38.772;2022-09-20T11:34:36;99619.34;;;15.39;51.55
71948;BME280;63257;55.082;38.772;2022-09-20T11:37:04;99616.44;;;15.88;50.50
71948;BME280;63257;55.082;38.772;2022-09-20T11:39:37;99620.91;;;15.76;51.10
71948;BME280;63257;55.082;38.772;2022-09-20T11:42:05;99617.75;;;15.71;51.87
71948;BME280;63257;55.082;38.772;2022-09-20T11:44:41;99617.88;;;15.69;50.50
71948;BME280;63257;55.082;38.772;2022-09-20T11:47:16;99614.03;;;16.28;48.53
71948;BME280;63257;55.082;38.772;2022-09-20T11:55:45;99609.88;;;16.68;48.55
71948;BME280;63257;55.082;38.772;2022-09-20T11:58:15;99610.66;;;17.01;47.13
71948;BME280;63257;55.082;38.772;2022-09-20T12:00:44;99612.66;;;17.30;46.79
71948;BME280;63257;55.082;38.772;2022-09-20T12:03:24;99603.97;;;16.86;47.94
71948;BME280;63257;55.082;38.772;2022-09-20T12:06:01;99599.41;;;16.98;47.39
71948;BME280;63257;55.082;38.772;2022-09-20T12:08:33;99602.38;;;16.62;48.36
71948;BME280;63257;55.082;38.772;2022-09-20T12:11:11;99595.19;;;16.95;46.75
71948;BME280;63257;55.082;38.772;2022-09-20T12:13:40;99594.78;;;17.61;45.70
71948;BME280;63257;55.082;38.772;2022-09-20T12:16:15;99595.44;;;17.85;43.91
71948;BME280;63257;55.082;38.772;2022-09-20T12:21:23;99595.91;;;18.48;42.99
71948;BME280;63257;55.082;38.772;2022-09-20T12:37:16;99535.59;;;18.26;42.94
71948;BME280;63257;55.082;38.772;2022-09-20T12:39:49;99544.41;;;18.76;41.76
71948;BME280;63257;55.082;38.772;2022-09-20T12:42:42;99565.41;;;19.18;40.91
71948;BME280;63257;55.082;38.772;2022-09-20T12:45:18;99574.25;;;18.52;43.03
71948;BME280;63257;55.082;38.772;2022-09-20T12:47:54;99583.25;;;17.61;45.13
71948;BME280;63257;55.082;38.772;2022-09-20T12:50:24;99591.03;;;17.02;47.07
71948;BME280;63257;55.082;38.772;2022-09-20T12:53:13;99588.72;;;16.55;48.91
71948;BME280;63257;55.082;38.772;2022-09-20T13:03:38;99603.84;;;17.39;47.13
71948;BME280;63257;55.082;38.772;2022-09-20T13:08:33;99602.88;;;17.91;46.44
71948;BME280;63257;55.082;38.772;2022-09-20T13:11:19;99568.34;;;18.19;44.55
71948;BME280;63257;55.082;38.772;2022-09-20T13:13:52;99608.69;;;18.84;43.80
71948;BME280;63257;55.082;38.772;2022-09-20T13:16:53;99591.59;;;19.14;42.75
71948;BME280;63257;55.082;38.772;2022-09-20T13:19:26;99601.44;;;19.24;42.86
71948;BME280;63257;55.082;38.772;2022-09-20T13:22:15;99601.66;;;19.40;42.50
71948;BME280;63257;55.082;38.772;2022-09-20T13:24:46;99605.06;;;19.60;41.62
71948;BME280;63257;55.082;38.772;2022-09-20T13:27:17;99615.16;;;19.76;41.08
71948;BME280;63257;55.082;38.772;2022-09-20T13:29:49;99605.88;;;19.43;41.41
71948;BME280;63257;55.082;38.772;2022-09-20T13:32:26;99582.06;;;19.40;41.30
71948;BME280;63257;55.082;38.772;2022-09-20T13:37:31;99614.97;;;19.88;41.03
71948;BME280;63257;55.082;38.772;2022-09-20T13:39:58;99609.78;;;19.76;40.91
71948;BME280;63257;55.082;38.772;2022-09-20T13:42:27;99615.31;;;20.03;41.04
71948;BME280;63257;55.082;38.772;2022-09-20T13:44:55;99606.13;;;20.23;40.24
71948;BME280;63257;55.082;38.772;2022-09-20T13:47:24;99618.31;;;20.36;40.49
71948;BME280;63257;55.082;38.772;2022-09-20T13:49:50;99581.28;;;20.31;40.12
71948;BME280;63257;55.082;38.772;2022-09-20T13:52:29;99622.38;;;20.40;40.02
71948;BME280;63257;55.082;38.772;2022-09-20T13:54:56;99623.22;;;20.58;40.20
71948;BME280;63257;55.082;38.772;2022-09-20T13:57:25;99615.94;;;20.50;39.34
71948;BME280;63257;55.082;38.772;2022-09-20T13:59:55;99633.09;;;20.58;39.70
71948;BME280;63257;55.082;38.772;2022-09-20T14:02:28;99613.41;;;20.49;40.00
71948;BME280;63257;55.082;38.772;2022-09-20T14:05:12;99637.00;;;20.45;39.67
71948;BME280;63257;55.082;38.772;2022-09-20T14:07:42;99614.81;;;20.35;40.10
71948;BME280;63257;55.082;38.772;2022-09-20T14:10:36;99641.25;;;20.02;40.63
71948;BME280;63257;55.082;38.772;2022-09-20T14:13:13;99633.72;;;19.88;41.18
71948;BME280;63257;55.082;38.772;2022-09-20T14:15:44;99644.00;;;19.92;41.25
71948;BME280;63257;55.082;38.772;2022-09-20T14:18:14;99643.63;;;20.05;41.14
71948;BME280;63257;55.082;38.772;2022-09-20T14:20:43;99647.47;;;20.21;40.75
71948;BME280;63257;55.082;38.772;2022-09-20T14:23:25;99649.00;;;20.23;40.98
71948;BME280;63257;55.082;38.772;2022-09-20T14:28:31;99637.94;;;19.90;40.85
71948;BME280;63257;55.082;38.772;2022-09-20T14:31:16;99642.13;;;19.65;41.73
71948;BME280;63257;55.082;38.772;2022-09-20T14:33:47;99647.28;;;19.76;41.68
71948;BME280;63257;55.082;38.772;2022-09-20T14:36:23;99645.19;;;19.80;42.04
71948;BME280;63257;55.082;38.772;2022-09-20T14:38:53;99660.53;;;19.40;42.53
71948;BME280;63257;55.082;38.772;2022-09-20T14:41:25;99655.94;;;19.13;43.46
71948;BME280;63257;55.082;38.772;2022-09-20T14:43:58;99649.34;;;19.07;43.71
71948;BME280;63257;55.082;38.772;2022-09-20T14:46:32;99659.50;;;18.74;44.10
71948;BME280;63257;55.082;38.772;2022-09-20T14:49:21;99665.34;;;17.78;46.24
71948;BME280;63257;55.082;38.772;2022-09-20T14:52:49;99659.78;;;17.51;47.27
71948;BME280;63257;55.082;38.772;2022-09-20T14:57:34;99673.00;;;17.62;47.06
71948;BME280;63257;55.082;38.772;2022-09-20T15:00:13;99661.03;;;17.46;47.29
71948;BME280;63257;55.082;38.772;2022-09-20T15:02:46;99665.56;;;17.56;47.36
71948;BME280;63257;55.082;38.772;2022-09-20T15:05:25;99672.78;;;17.44;47.75
71948;BME280;63257;55.082;38.772;2022-09-20T15:07:52;99655.94;;;16.91;49.03
71948;BME280;63257;55.082;38.772;2022-09-20T15:10:20;99668.06;;;16.52;50.09
71948;BME280;63257;55.082;38.772;2022-09-20T15:12:47;99667.22;;;16.07;51.56
71948;BME280;63257;55.082;38.772;2022-09-20T15:15:15;99670.16;;;15.82;53.05
71948;BME280;63257;55.082;38.772;2022-09-20T15:17:47;99674.09;;;15.53;53.73
71948;BME280;63257;55.082;38.772;2022-09-20T15:20:20;99664.06;;;15.23;55.23
71948;BME280;63257;55.082;38.772;2022-09-20T15:22:47;99675.00;;;15.07;55.08
71948;BME280;63257;55.082;38.772;2022-09-20T15:25:16;99693.00;;;15.03;56.28
71948;BME280;63257;55.082;38.772;2022-09-20T15:27:44;99693.31;;;14.87;57.34
71948;BME280;63257;55.082;38.772;2022-09-20T15:30:13;99690.03;;;14.59;57.18
71948;BME280;63257;55.082;38.772;2022-09-20T15:32:42;99699.97;;;14.45;57.43
71948;BME280;63257;55.082;38.772;2022-09-20T15:35:11;99703.75;;;14.29;57.63
71948;BME280;63257;55.082;38.772;2022-09-20T15:37:38;99694.56;;;14.09;57.87
71948;BME280;63257;55.082;38.772;2022-09-20T15:40:07;99698.22;;;13.95;58.52
71948;BME280;63257;55.082;38.772;2022-09-20T15:42:35;99703.22;;;13.87;58.73
71948;BME280;63257;55.082;38.772;2022-09-20T15:45:09;99705.56;;;13.79;58.77
71948;BME280;63257;55.082;38.772;2022-09-20T15:47:36;99709.84;;;13.68;59.36
71948;BME280;63257;55.082;38.772;2022-09-20T15:50:20;99716.22;;;13.66;59.34
71948;BME280;63257;55.082;38.772;2022-09-20T15:52:52;99711.66;;;13.55;59.61
71948;BME280;63257;55.082;38.772;2022-09-20T15:55:36;99687.31;;;13.22;60.00
71948;BME280;63257;55.082;38.772;2022-09-20T15:58:02;99688.59;;;13.17;60.46
71948;BME280;63257;55.082;38.772;2022-09-20T16:00:34;99701.09;;;13.15;62.12
71948;BME280;63257;55.082;38.772;2022-09-20T16:03:49;99677.31;;;12.87;61.74
71948;BME280;63257;55.082;38.772;2022-09-20T16:06:33;99668.59;;;12.72;61.75
71948;BME280;63257;55.082;38.772;2022-09-20T16:09:37;99729.28;;;13.03;61.91
71948;BME280;63257;55.082;38.772;2022-09-20T16:15:24;99665.97;;;12.45;63.16
71948;BME280;63257;55.082;38.772;2022-09-20T16:18:36;99709.13;;;12.60;63.29
71948;BME280;63257;55.082;38.772;2022-09-20T16:21:43;99749.41;;;12.65;63.85
71948;BME280;63257;55.082;38.772;2022-09-20T16:24:14;99677.69;;;12.28;64.30
71948;BME280;63257;55.082;38.772;2022-09-20T16:26:44;99731.66;;;12.53;64.30
71948;BME280;63257;55.082;38.772;2022-09-20T16:29:14;99732.81;;;12.49;64.49
71948;BME280;63257;55.082;38.772;2022-09-20T16:31:43;99670.25;;;12.06;65.04
71948;BME280;63257;55.082;38.772;2022-09-20T16:34:28;99707.16;;;12.22;65.08
71948;BME280;63257;55.082;38.772;2022-09-20T16:37:17;99680.28;;;12.01;64.64
71948;BME280;63257;55.082;38.772;2022-09-20T16:39:42;99742.38;;;12.37;65.23
71948;BME280;63257;55.082;38.772;2022-09-20T16:42:14;99682.06;;;12.00;64.96
71948;BME280;63257;55.082;38.772;2022-09-20T16:44:44;99705.84;;;12.15;65.63
71948;BME280;63257;55.082;38.772;2022-09-20T16:47:14;99733.06;;;12.17;65.35
71948;BME280;63257;55.082;38.772;2022-09-20T16:49:49;99731.75;;;12.10;66.36
71948;BME280;63257;55.082;38.772;2022-09-20T16:52:16;99725.91;;;12.04;66.30
71948;BME280;63257;55.082;38.772;2022-09-20T16:54:46;99691.59;;;11.74;66.31
71948;BME280;63257;55.082;38.772;2022-09-20T16:57:16;99727.44;;;11.94;66.68
71948;BME280;63257;55.082;38.772;2022-09-20T16:59:42;99768.31;;;12.03;67.14
71948;BME280;63257;55.082;38.772;2022-09-20T17:02:16;99702.47;;;11.69;67.48
71948;BME280;63257;55.082;38.772;2022-09-20T17:04:42;99712.38;;;11.66;67.60
71948;BME280;63257;55.082;38.772;2022-09-20T17:07:14;99759.59;;;11.86;68.01
71948;BME280;63257;55.082;38.772;2022-09-20T17:09:40;99769.34;;;11.86;68.23
71948;BME280;63257;55.082;38.772;2022-09-20T17:12:06;99765.91;;;11.84;68.23
71948;BME280;63257;55.082;38.772;2022-09-20T17:14:37;99705.94;;;11.41;68.37
71948;BME280;63257;55.082;38.772;2022-09-20T17:17:15;99763.09;;;11.73;68.73
71948;BME280;63257;55.082;38.772;2022-09-20T17:19:43;99726.06;;;11.44;68.96
71948;BME280;63257;55.082;38.772;2022-09-20T17:22:09;99762.63;;;11.66;68.90
71948;BME280;63257;55.082;38.772;2022-09-20T17:24:36;99709.72;;;11.23;68.94
71948;BME280;63257;55.082;38.772;2022-09-20T17:27:01;99727.56;;;11.33;69.07
71948;BME280;63257;55.082;38.772;2022-09-20T17:29:33;99721.03;;;11.25;68.95
71948;BME280;63257;55.082;38.772;2022-09-20T17:31:59;99731.16;;;11.32;69.01
71948;BME280;63257;55.082;38.772;2022-09-20T17:34:25;99742.47;;;11.34;68.94
71948;BME280;63257;55.082;38.772;2022-09-20T17:36:52;99776.09;;;11.47;69.37
71948;BME280;63257;55.082;38.772;2022-09-20T17:39:19;99764.00;;;11.43;69.62
71948;BME280;63257;55.082;38.772;2022-09-20T17:41:47;99738.78;;;11.23;69.70
71948;BME280;63257;55.082;38.772;2022-09-20T17:44:14;99712.59;;;11.03;69.35
71948;BME280;63257;55.082;38.772;2022-09-20T17:46:45;99719.59;;;11.05;69.40
71948;BME280;63257;55.082;38.772;2022-09-20T17:49:13;99750.38;;;11.20;69.67
71948;BME280;63257;55.082;38.772;2022-09-20T17:51:44;99739.13;;;11.16;69.66
71948;BME280;63257;55.082;38.772;2022-09-20T17:54:12;99732.69;;;11.06;69.98
71948;BME280;63257;55.082;38.772;2022-09-20T17:56:46;99737.09;;;11.06;70.89
71948;BME280;63257;55.082;38.772;2022-09-20T17:59:13;99756.28;;;11.09;71.14
71948;BME280;63257;55.082;38.772;2022-09-20T18:01:47;99698.38;;;10.76;70.83
71948;BME280;63257;55.082;38.772;2022-09-20T18:04:23;99711.47;;;10.77;73.90
71948;BME280;63257;55.082;38.772;2022-09-20T18:06:51;99736.69;;;10.83;73.01
71948;BME280;63257;55.082;38.772;2022-09-20T18:09:22;99748.06;;;10.83;74.56
71948;BME280;63257;55.082;38.772;2022-09-20T18:11:52;99755.50;;;10.77;75.23
71948;BME280;63257;55.082;38.772;2022-09-20T18:14:21;99735.44;;;10.58;75.64
71948;BME280;63257;55.082;38.772;2022-09-20T18:16:54;99721.41;;;10.42;75.94
71948;BME280;63257;55.082;38.772;2022-09-20T18:19:22;99715.69;;;10.33;75.91
71948;BME280;63257;55.082;38.772;2022-09-20T18:21:57;99715.34;;;10.24;76.45
71948;BME280;63257;55.082;38.772;2022-09-20T18:24:26;99711.50;;;10.13;76.99
71948;BME280;63257;55.082;38.772;2022-09-20T18:26:52;99785.34;;;10.47;77.56
71948;BME280;63257;55.082;38.772;2022-09-20T18:29:21;99764.34;;;10.28;77.99
71948;BME280;63257;55.082;38.772;2022-09-20T18:31:54;99729.19;;;9.95;78.31
71948;BME280;63257;55.082;38.772;2022-09-20T18:34:23;99789.88;;;10.27;78.52
71948;BME280;63257;55.082;38.772;2022-09-20T18:36:52;99718.59;;;9.79;79.08
71948;BME280;63257;55.082;38.772;2022-09-20T18:39:21;99781.59;;;10.17;79.16
71948;BME280;63257;55.082;38.772;2022-09-20T18:41:47;99784.34;;;10.16;79.12
71948;BME280;63257;55.082;38.772;2022-09-20T18:44:15;99786.53;;;10.08;79.40
71948;BME280;63257;55.082;38.772;2022-09-20T18:46:43;99791.09;;;10.04;79.55
71948;BME280;63257;55.082;38.772;2022-09-20T18:49:10;99780.06;;;9.97;79.76
71948;BME280;63257;55.082;38.772;2022-09-20T18:51:38;99774.41;;;9.88;79.79
71948;BME280;63257;55.082;38.772;2022-09-20T18:54:04;99773.38;;;9.90;80.04
71948;BME280;63257;55.082;38.772;2022-09-20T18:56:31;99786.44;;;9.93;80.45
71948;BME280;63257;55.082;38.772;2022-09-20T18:59:03;99784.63;;;9.94;80.09
71948;BME280;63257;55.082;38.772;2022-09-20T19:07:45;99789.13;;;9.92;80.84
71948;BME280;63257;55.082;38.772;2022-09-20T19:21:49;99782.50;;;9.67;81.80
71948;BME280;63257;55.082;38.772;2022-09-20T19:24:32;99798.41;;;9.65;82.00
71948;BME280;63257;55.082;38.772;2022-09-20T19:26:58;99782.22;;;9.56;82.35
71948;BME280;63257;55.082;38.772;2022-09-20T19:29:26;99797.19;;;9.55;82.45
71948;BME280;63257;55.082;38.772;2022-09-20T19:31:57;99801.84;;;9.50;82.93
71948;BME280;63257;55.082;38.772;2022-09-20T19:34:28;99796.91;;;9.44;83.44